sensor_id;sensor_type;location;lat;lon;timestamp;P1;durP1;ratioP1;P2;durP2;ratioP2
4278;SDS011;2153;47.744;10.580;2024-03-25T00:01:45;9.70;;;1.47;;
4278;SDS011;2153;47.744;10.580;2024-03-25T00:04:12;10.40;;;1.30;;
4278;SDS011;2153;47.744;10.580;2024-03-25T00:06:38;10.10;;;1.57;;
4278;SDS011;2153;47.744;10.580;2024-03-25T00:09:05;9.53;;;1.20;;
4278;SDS011;2153;47.744;10.580;2024-03-25T00:11:32;9.40;;;1.00;;
4278;SDS011;2153;47.744;10.580;2024-03-25T00:14:01;9.53;;;0.90;;
4278;SDS011;2153;47.744;10.580;2024-03-25T00:16:27;9.67;;;1.20;;
4278;SDS011;2153;47.744;10.580;2024-03-25T00:18:54;11.10;;;1.47;;
4278;SDS011;2153;47.744;10.580;2024-03-25T00:21:20;9.80;;;1.40;;
4278;SDS011;2153;47.744;10.580;2024-03-25T00:23:47;9.60;;;1.10;;
4278;SDS011;2153;47.744;10.580;2024-03-25T00:26:13;9.30;;;1.13;;
4278;SDS011;2153;47.744;10.580;2024-03-25T00:28:40;9.17;;;1.10;;
4278;SDS011;2153;47.744;10.580;2024-03-25T00:31:07;9.27;;;1.03;;
4278;SDS011;2153;47.744;10.580;2024-03-25T00:33:34;9.53;;;1.10;;
4278;SDS011;2153;47.744;10.580;2024-03-25T00:36:00;9.13;;;1.07;;
4278;SDS011;2153;47.744;10.580;2024-03-25T00:38:27;10.70;;;1.40;;
4278;SDS011;2153;47.744;10.580;2024-03-25T00:40:53;10.40;;;1.60;;
4278;SDS011;2153;47.744;10.580;2024-03-25T00:43:20;10.07;;;1.93;;
4278;SDS011;2153;47.744;10.580;2024-03-25T00:45:46;9.57;;;1.20;;
4278;SDS011;2153;47.744;10.580;2024-03-25T00:48:15;10.43;;;1.60;;
4278;SDS011;2153;47.744;10.580;2024-03-25T00:50:41;10.20;;;1.83;;
4278;SDS011;2153;47.744;10.580;2024-03-25T00:53:08;12.50;;;1.90;;
4278;SDS011;2153;47.744;10.580;2024-03-25T00:55:34;9.87;;;1.53;;
4278;SDS011;2153;47.744;10.580;2024-03-25T00:58:01;9.90;;;1.60;;
4278;SDS011;2153;47.744;10.580;2024-03-25T01:00:27;10.60;;;1.80;;
4278;SDS011;2153;47.744;10.580;2024-03-25T01:02:54;10.93;;;2.20;;
4278;SDS011;2153;47.744;10.580;2024-03-25T01:05:21;10.73;;;1.90;;
4278;SDS011;2153;47.744;10.580;2024-03-25T01:07:48;10.20;;;1.70;;
4278;SDS011;2153;47.744;10.580;2024-03-25T01:10:14;12.67;;;2.33;;
4278;SDS011;2153;47.744;10.580;2024-03-25T01:12:42;12.00;;;1.97;;
4278;SDS011;2153;47.744;10.580;2024-03-25T01:15:08;12.40;;;2.17;;
4278;SDS011;2153;47.744;10.580;2024-03-25T01:17:36;11.03;;;2.07;;
4278;SDS011;2153;47.744;10.580;2024-03-25T01:20:03;10.60;;;2.00;;
4278;SDS011;2153;47.744;10.580;2024-03-25T01:22:31;11.13;;;2.13;;
4278;SDS011;2153;47.744;10.580;2024-03-25T01:24:57;12.87;;;2.50;;
4278;SDS011;2153;47.744;10.580;2024-03-25T01:27:24;12.00;;;2.10;;
4278;SDS011;2153;47.744;10.580;2024-03-25T01:29:51;12.80;;;2.00;;
4278;SDS011;2153;47.744;10.580;2024-03-25T01:32:18;11.10;;;2.20;;
4278;SDS011;2153;47.744;10.580;2024-03-25T01:34:44;10.40;;;1.90;;
4278;SDS011;2153;47.744;10.580;2024-03-25T01:37:11;14.67;;;2.00;;
4278;SDS011;2153;47.744;10.580;2024-03-25T01:39:38;11.43;;;2.10;;
4278;SDS011;2153;47.744;10.580;2024-03-25T01:42:05;11.67;;;1.90;;
4278;SDS011;2153;47.744;10.580;2024-03-25T01:44:31;10.70;;;2.07;;
4278;SDS011;2153;47.744;10.580;2024-03-25T01:46:59;25.67;;;2.53;;
4278;SDS011;2153;47.744;10.580;2024-03-25T01:49:25;12.20;;;1.90;;
4278;SDS011;2153;47.744;10.580;2024-03-25T01:51:52;11.50;;;1.97;;
4278;SDS011;2153;47.744;10.580;2024-03-25T01:54:18;12.43;;;1.90;;
4278;SDS011;2153;47.744;10.580;2024-03-25T01:56:47;14.03;;;2.20;;
4278;SDS011;2153;47.744;10.580;2024-03-25T01:59:13;11.60;;;2.03;;
4278;SDS011;2153;47.744;10.580;2024-03-25T02:01:42;12.70;;;2.10;;
4278;SDS011;2153;47.744;10.580;2024-03-25T02:04:09;14.23;;;2.20;;
4278;SDS011;2153;47.744;10.580;2024-03-25T02:06:37;11.93;;;2.10;;
4278;SDS011;2153;47.744;10.580;2024-03-25T02:09:04;13.13;;;2.53;;
4278;SDS011;2153;47.744;10.580;2024-03-25T02:11:32;10.70;;;2.00;;
4278;SDS011;2153;47.744;10.580;2024-03-25T02:13:59;12.97;;;2.57;;
4278;SDS011;2153;47.744;10.580;2024-03-25T02:16:26;11.60;;;2.00;;
4278;SDS011;2153;47.744;10.580;2024-03-25T02:18:52;14.10;;;2.40;;
4278;SDS011;2153;47.744;10.580;2024-03-25T02:21:19;10.77;;;2.27;;
4278;SDS011;2153;47.744;10.580;2024-03-25T02:23:45;10.70;;;2.27;;
4278;SDS011;2153;47.744;10.580;2024-03-25T02:26:16;14.70;;;2.53;;
4278;SDS011;2153;47.744;10.580;2024-03-25T02:28:42;11.30;;;2.30;;
4278;SDS011;2153;47.744;10.580;2024-03-25T02:31:09;12.33;;;2.43;;
4278;SDS011;2153;47.744;10.580;2024-03-25T02:33:35;15.27;;;2.30;;
4278;SDS011;2153;47.744;10.580;2024-03-25T02:36:02;14.53;;;2.80;;
4278;SDS011;2153;47.744;10.580;2024-03-25T02:38:28;11.20;;;2.27;;
4278;SDS011;2153;47.744;10.580;2024-03-25T02:40:57;13.03;;;2.33;;
4278;SDS011;2153;47.744;10.580;2024-03-25T02:43:24;12.63;;;2.13;;
4278;SDS011;2153;47.744;10.580;2024-03-25T02:45:52;12.63;;;2.40;;
4278;SDS011;2153;47.744;10.580;2024-03-25T02:48:18;12.83;;;2.50;;
4278;SDS011;2153;47.744;10.580;2024-03-25T02:50:45;11.10;;;2.10;;
4278;SDS011;2153;47.744;10.580;2024-03-25T02:53:11;12.60;;;2.37;;
4278;SDS011;2153;47.744;10.580;2024-03-25T02:55:38;12.60;;;2.40;;
4278;SDS011;2153;47.744;10.580;2024-03-25T02:58:04;12.67;;;2.20;;
4278;SDS011;2153;47.744;10.580;2024-03-25T03:00:32;12.03;;;2.47;;
4278;SDS011;2153;47.744;10.580;2024-03-25T03:02:58;10.37;;;1.97;;
4278;SDS011;2153;47.744;10.580;2024-03-25T03:05:25;13.33;;;2.50;;
4278;SDS011;2153;47.744;10.580;2024-03-25T03:07:51;11.00;;;2.10;;
4278;SDS011;2153;47.744;10.580;2024-03-25T03:10:18;12.40;;;1.87;;
4278;SDS011;2153;47.744;10.580;2024-03-25T03:12:44;11.83;;;2.23;;
4278;SDS011;2153;47.744;10.580;2024-03-25T03:15:11;11.30;;;2.30;;
4278;SDS011;2153;47.744;10.580;2024-03-25T03:17:39;10.77;;;2.20;;
4278;SDS011;2153;47.744;10.580;2024-03-25T03:20:06;10.63;;;2.00;;
4278;SDS011;2153;47.744;10.580;2024-03-25T03:22:32;12.20;;;2.30;;
4278;SDS011;2153;47.744;10.580;2024-03-25T03:24:59;12.23;;;2.33;;
4278;SDS011;2153;47.744;10.580;2024-03-25T03:27:25;18.43;;;3.00;;
4278;SDS011;2153;47.744;10.580;2024-03-25T03:29:52;14.47;;;3.20;;
4278;SDS011;2153;47.744;10.580;2024-03-25T03:32:18;14.90;;;3.40;;
4278;SDS011;2153;47.744;10.580;2024-03-25T03:34:47;12.40;;;3.03;;
4278;SDS011;2153;47.744;10.580;2024-03-25T03:37:13;15.70;;;3.30;;
4278;SDS011;2153;47.744;10.580;2024-03-25T03:39:40;11.13;;;2.33;;
4278;SDS011;2153;47.744;10.580;2024-03-25T03:42:06;15.33;;;2.27;;
4278;SDS011;2153;47.744;10.580;2024-03-25T03:44:33;12.23;;;2.40;;
4278;SDS011;2153;47.744;10.580;2024-03-25T03:46:59;15.83;;;2.80;;
4278;SDS011;2153;47.744;10.580;2024-03-25T03:49:26;15.30;;;2.60;;
4278;SDS011;2153;47.744;10.580;2024-03-25T03:51:53;10.83;;;2.57;;
4278;SDS011;2153;47.744;10.580;2024-03-25T03:54:22;13.37;;;2.50;;
4278;SDS011;2153;47.744;10.580;2024-03-25T03:56:48;11.20;;;2.50;;
4278;SDS011;2153;47.744;10.580;2024-03-25T03:59:15;12.77;;;3.03;;
4278;SDS011;2153;47.744;10.580;2024-03-25T04:01:41;17.43;;;2.33;;
4278;SDS011;2153;47.744;10.580;2024-03-25T04:04:08;10.20;;;2.00;;
4278;SDS011;2153;47.744;10.580;2024-03-25T04:06:35;11.67;;;2.53;;
4278;SDS011;2153;47.744;10.580;2024-03-25T04:09:06;12.87;;;2.53;;
4278;SDS011;2153;47.744;10.580;2024-03-25T04:11:35;12.47;;;2.77;;
4278;SDS011;2153;47.744;10.580;2024-03-25T04:14:02;11.40;;;2.13;;
4278;SDS011;2153;47.744;10.580;2024-03-25T04:16:28;17.60;;;2.40;;
4278;SDS011;2153;47.744;10.580;2024-03-25T04:18:56;11.33;;;2.33;;
4278;SDS011;2153;47.744;10.580;2024-03-25T04:21:22;16.43;;;2.00;;
4278;SDS011;2153;47.744;10.580;2024-03-25T04:23:49;12.20;;;2.67;;
4278;SDS011;2153;47.744;10.580;2024-03-25T04:26:16;12.23;;;2.30;;
4278;SDS011;2153;47.744;10.580;2024-03-25T04:28:43;13.47;;;2.60;;
4278;SDS011;2153;47.744;10.580;2024-03-25T04:31:10;12.80;;;2.40;;
4278;SDS011;2153;47.744;10.580;2024-03-25T04:33:37;14.23;;;2.40;;
4278;SDS011;2153;47.744;10.580;2024-03-25T04:36:04;13.03;;;2.80;;
4278;SDS011;2153;47.744;10.580;2024-03-25T04:38:30;10.80;;;2.23;;
4278;SDS011;2153;47.744;10.580;2024-03-25T04:40:56;11.20;;;2.70;;
4278;SDS011;2153;47.744;10.580;2024-03-25T04:43:24;13.60;;;2.90;;
4278;SDS011;2153;47.744;10.580;2024-03-25T04:45:50;12.67;;;2.23;;
4278;SDS011;2153;47.744;10.580;2024-03-25T04:48:16;13.57;;;2.50;;
4278;SDS011;2153;47.744;10.580;2024-03-25T04:50:42;12.27;;;3.10;;
4278;SDS011;2153;47.744;10.580;2024-03-25T04:53:08;11.63;;;2.47;;
4278;SDS011;2153;47.744;10.580;2024-03-25T04:55:34;13.80;;;2.63;;
4278;SDS011;2153;47.744;10.580;2024-03-25T04:58:00;11.87;;;2.40;;
4278;SDS011;2153;47.744;10.580;2024-03-25T05:00:28;12.43;;;2.40;;
4278;SDS011;2153;47.744;10.580;2024-03-25T05:02:54;13.80;;;2.40;;
4278;SDS011;2153;47.744;10.580;2024-03-25T05:05:20;11.00;;;1.90;;
4278;SDS011;2153;47.744;10.580;2024-03-25T05:07:46;12.93;;;3.17;;
4278;SDS011;2153;47.744;10.580;2024-03-25T05:10:12;14.20;;;2.60;;
4278;SDS011;2153;47.744;10.580;2024-03-25T05:12:38;11.47;;;2.80;;
4278;SDS011;2153;47.744;10.580;2024-03-25T05:15:05;13.07;;;3.07;;
4278;SDS011;2153;47.744;10.580;2024-03-25T05:17:32;12.27;;;2.83;;
4278;SDS011;2153;47.744;10.580;2024-03-25T05:19:58;17.63;;;3.63;;
4278;SDS011;2153;47.744;10.580;2024-03-25T05:22:25;15.80;;;3.93;;
4278;SDS011;2153;47.744;10.580;2024-03-25T05:24:51;11.83;;;2.63;;
4278;SDS011;2153;47.744;10.580;2024-03-25T05:27:17;12.37;;;3.17;;
4278;SDS011;2153;47.744;10.580;2024-03-25T05:29:43;12.10;;;2.20;;
4278;SDS011;2153;47.744;10.580;2024-03-25T05:32:09;11.57;;;2.30;;
4278;SDS011;2153;47.744;10.580;2024-03-25T05:34:36;12.80;;;1.90;;
4278;SDS011;2153;47.744;10.580;2024-03-25T05:37:03;15.40;;;2.70;;
4278;SDS011;2153;47.744;10.580;2024-03-25T05:39:29;13.30;;;2.20;;
4278;SDS011;2153;47.744;10.580;2024-03-25T05:41:55;13.07;;;2.47;;
4278;SDS011;2153;47.744;10.580;2024-03-25T05:44:21;12.00;;;2.10;;
4278;SDS011;2153;47.744;10.580;2024-03-25T05:46:47;10.47;;;2.20;;
4278;SDS011;2153;47.744;10.580;2024-03-25T05:49:13;14.40;;;2.40;;
4278;SDS011;2153;47.744;10.580;2024-03-25T05:51:41;14.57;;;2.50;;
4278;SDS011;2153;47.744;10.580;2024-03-25T05:54:07;11.17;;;2.37;;
4278;SDS011;2153;47.744;10.580;2024-03-25T05:56:33;11.70;;;2.60;;
4278;SDS011;2153;47.744;10.580;2024-03-25T05:58:59;12.13;;;2.50;;
4278;SDS011;2153;47.744;10.580;2024-03-25T06:01:26;12.83;;;2.50;;
4278;SDS011;2153;47.744;10.580;2024-03-25T06:03:52;10.57;;;1.90;;
4278;SDS011;2153;47.744;10.580;2024-03-25T06:06:18;13.67;;;2.37;;
4278;SDS011;2153;47.744;10.580;2024-03-25T06:08:46;14.00;;;2.83;;
4278;SDS011;2153;47.744;10.580;2024-03-25T06:11:12;13.30;;;2.13;;
4278;SDS011;2153;47.744;10.580;2024-03-25T06:13:38;12.30;;;2.10;;
4278;SDS011;2153;47.744;10.580;2024-03-25T06:16:04;12.57;;;2.40;;
4278;SDS011;2153;47.744;10.580;2024-03-25T06:18:31;17.50;;;4.37;;
4278;SDS011;2153;47.744;10.580;2024-03-25T06:20:57;13.17;;;2.70;;
4278;SDS011;2153;47.744;10.580;2024-03-25T06:23:23;11.60;;;2.37;;
4278;SDS011;2153;47.744;10.580;2024-03-25T06:25:51;10.70;;;2.10;;
4278;SDS011;2153;47.744;10.580;2024-03-25T06:28:17;10.57;;;1.90;;
4278;SDS011;2153;47.744;10.580;2024-03-25T06:30:44;12.23;;;2.10;;
4278;SDS011;2153;47.744;10.580;2024-03-25T06:33:29;11.47;;;1.80;;
4278;SDS011;2153;47.744;10.580;2024-03-25T06:36:14;15.60;;;2.10;;
4278;SDS011;2153;47.744;10.580;2024-03-25T06:38:40;14.23;;;2.30;;
4278;SDS011;2153;47.744;10.580;2024-03-25T06:41:08;12.97;;;2.40;;
4278;SDS011;2153;47.744;10.580;2024-03-25T06:43:34;12.97;;;2.20;;
4278;SDS011;2153;47.744;10.580;2024-03-25T06:46:00;12.50;;;3.00;;
4278;SDS011;2153;47.744;10.580;2024-03-25T06:48:26;12.40;;;3.00;;
4278;SDS011;2153;47.744;10.580;2024-03-25T06:50:53;14.70;;;3.00;;
4278;SDS011;2153;47.744;10.580;2024-03-25T06:53:19;13.60;;;2.67;;
4278;SDS011;2153;47.744;10.580;2024-03-25T06:55:52;13.40;;;2.97;;
4278;SDS011;2153;47.744;10.580;2024-03-25T06:58:20;21.00;;;6.17;;
4278;SDS011;2153;47.744;10.580;2024-03-25T07:00:46;14.53;;;3.17;;
4278;SDS011;2153;47.744;10.580;2024-03-25T07:03:13;11.90;;;2.20;;
4278;SDS011;2153;47.744;10.580;2024-03-25T07:05:39;11.40;;;1.97;;
4278;SDS011;2153;47.744;10.580;2024-03-25T07:08:05;11.53;;;1.87;;
4278;SDS011;2153;47.744;10.580;2024-03-25T07:10:31;17.00;;;4.27;;
4278;SDS011;2153;47.744;10.580;2024-03-25T07:12:57;16.13;;;4.17;;
4278;SDS011;2153;47.744;10.580;2024-03-25T07:15:25;13.17;;;2.73;;
4278;SDS011;2153;47.744;10.580;2024-03-25T07:17:51;13.70;;;3.27;;
4278;SDS011;2153;47.744;10.580;2024-03-25T07:20:17;13.43;;;2.90;;
4278;SDS011;2153;47.744;10.580;2024-03-25T07:22:44;14.67;;;2.87;;
4278;SDS011;2153;47.744;10.580;2024-03-25T07:25:10;15.73;;;3.30;;
4278;SDS011;2153;47.744;10.580;2024-03-25T07:27:36;13.20;;;2.80;;
4278;SDS011;2153;47.744;10.580;2024-03-25T07:30:03;15.37;;;3.23;;
4278;SDS011;2153;47.744;10.580;2024-03-25T07:32:30;14.07;;;2.00;;
4278;SDS011;2153;47.744;10.580;2024-03-25T07:34:56;15.70;;;2.20;;
4278;SDS011;2153;47.744;10.580;2024-03-25T07:37:23;13.83;;;1.90;;
4278;SDS011;2153;47.744;10.580;2024-03-25T07:39:49;12.77;;;1.53;;
4278;SDS011;2153;47.744;10.580;2024-03-25T07:42:15;17.93;;;1.90;;
4278;SDS011;2153;47.744;10.580;2024-03-25T07:44:41;13.10;;;1.97;;
4278;SDS011;2153;47.744;10.580;2024-03-25T07:47:07;13.00;;;1.70;;
4278;SDS011;2153;47.744;10.580;2024-03-25T07:49:35;13.07;;;1.50;;
4278;SDS011;2153;47.744;10.580;2024-03-25T07:52:01;15.37;;;1.90;;
4278;SDS011;2153;47.744;10.580;2024-03-25T07:54:27;13.13;;;1.57;;
4278;SDS011;2153;47.744;10.580;2024-03-25T07:56:53;13.10;;;1.90;;
4278;SDS011;2153;47.744;10.580;2024-03-25T07:59:19;14.50;;;1.80;;
4278;SDS011;2153;47.744;10.580;2024-03-25T08:01:46;14.27;;;1.70;;
4278;SDS011;2153;47.744;10.580;2024-03-25T08:04:12;13.60;;;1.63;;
4278;SDS011;2153;47.744;10.580;2024-03-25T08:06:39;12.50;;;1.63;;
4278;SDS011;2153;47.744;10.580;2024-03-25T08:09:06;12.77;;;1.67;;
4278;SDS011;2153;47.744;10.580;2024-03-25T08:11:34;15.40;;;1.97;;
4278;SDS011;2153;47.744;10.580;2024-03-25T08:14:00;13.30;;;1.70;;
4278;SDS011;2153;47.744;10.580;2024-03-25T08:16:26;15.27;;;2.00;;
4278;SDS011;2153;47.744;10.580;2024-03-25T08:18:52;14.53;;;2.13;;
4278;SDS011;2153;47.744;10.580;2024-03-25T08:21:19;16.70;;;2.00;;
4278;SDS011;2153;47.744;10.580;2024-03-25T08:23:46;13.33;;;1.60;;
4278;SDS011;2153;47.744;10.580;2024-03-25T08:26:12;14.10;;;1.50;;
4278;SDS011;2153;47.744;10.580;2024-03-25T08:28:38;15.43;;;1.57;;
4278;SDS011;2153;47.744;10.580;2024-03-25T08:31:04;13.10;;;1.67;;
4278;SDS011;2153;47.744;10.580;2024-03-25T08:33:31;13.73;;;1.70;;
4278;SDS011;2153;47.744;10.580;2024-03-25T08:38:30;14.57;;;1.63;;
4278;SDS011;2153;47.744;10.580;2024-03-25T08:40:57;15.37;;;1.83;;
4278;SDS011;2153;47.744;10.580;2024-03-25T08:43:24;13.43;;;1.70;;
4278;SDS011;2153;47.744;10.580;2024-03-25T08:48:26;16.40;;;2.00;;
4278;SDS011;2153;47.744;10.580;2024-03-25T08:50:52;14.60;;;1.60;;
4278;SDS011;2153;47.744;10.580;2024-03-25T08:53:18;13.87;;;1.70;;
4278;SDS011;2153;47.744;10.580;2024-03-25T08:55:45;14.80;;;1.90;;
4278;SDS011;2153;47.744;10.580;2024-03-25T08:58:13;15.17;;;1.77;;
4278;SDS011;2153;47.744;10.580;2024-03-25T09:00:39;20.03;;;2.47;;
4278;SDS011;2153;47.744;10.580;2024-03-25T09:03:06;13.43;;;1.80;;
4278;SDS011;2153;47.744;10.580;2024-03-25T09:05:32;15.90;;;1.70;;
4278;SDS011;2153;47.744;10.580;2024-03-25T09:07:58;12.47;;;1.50;;
4278;SDS011;2153;47.744;10.580;2024-03-25T09:10:25;13.20;;;1.80;;
4278;SDS011;2153;47.744;10.580;2024-03-25T09:13:09;13.57;;;1.67;;
4278;SDS011;2153;47.744;10.580;2024-03-25T09:15:37;15.33;;;2.03;;
4278;SDS011;2153;47.744;10.580;2024-03-25T09:18:03;13.33;;;1.90;;
4278;SDS011;2153;47.744;10.580;2024-03-25T09:20:29;13.87;;;2.23;;
4278;SDS011;2153;47.744;10.580;2024-03-25T09:22:55;14.60;;;2.00;;
4278;SDS011;2153;47.744;10.580;2024-03-25T09:25:22;13.80;;;1.70;;
4278;SDS011;2153;47.744;10.580;2024-03-25T09:27:49;13.37;;;1.57;;
4278;SDS011;2153;47.744;10.580;2024-03-25T09:30:16;15.50;;;1.70;;
4278;SDS011;2153;47.744;10.580;2024-03-25T09:32:44;14.97;;;1.30;;
4278;SDS011;2153;47.744;10.580;2024-03-25T09:35:10;12.67;;;1.20;;
4278;SDS011;2153;47.744;10.580;2024-03-25T09:37:37;13.63;;;1.70;;
4278;SDS011;2153;47.744;10.580;2024-03-25T09:40:03;17.07;;;1.70;;
4278;SDS011;2153;47.744;10.580;2024-03-25T09:42:33;15.23;;;1.53;;
4278;SDS011;2153;47.744;10.580;2024-03-25T09:44:59;13.70;;;1.70;;
4278;SDS011;2153;47.744;10.580;2024-03-25T09:47:25;15.23;;;1.40;;
4278;SDS011;2153;47.744;10.580;2024-03-25T09:49:54;13.90;;;1.20;;
4278;SDS011;2153;47.744;10.580;2024-03-25T09:52:20;13.40;;;1.30;;
4278;SDS011;2153;47.744;10.580;2024-03-25T09:54:47;12.20;;;1.00;;
4278;SDS011;2153;47.744;10.580;2024-03-25T09:57:13;13.17;;;1.30;;
4278;SDS011;2153;47.744;10.580;2024-03-25T09:59:40;12.80;;;1.30;;
4278;SDS011;2153;47.744;10.580;2024-03-25T10:02:06;14.33;;;1.30;;
4278;SDS011;2153;47.744;10.580;2024-03-25T10:04:37;14.03;;;1.50;;
4278;SDS011;2153;47.744;10.580;2024-03-25T10:07:06;13.93;;;1.20;;
4278;SDS011;2153;47.744;10.580;2024-03-25T10:09:33;13.70;;;1.40;;
4278;SDS011;2153;47.744;10.580;2024-03-25T10:11:59;15.60;;;1.50;;
4278;SDS011;2153;47.744;10.580;2024-03-25T10:14:25;14.40;;;1.53;;
4278;SDS011;2153;47.744;10.580;2024-03-25T10:16:51;14.20;;;1.20;;
4278;SDS011;2153;47.744;10.580;2024-03-25T10:19:17;13.17;;;1.23;;
4278;SDS011;2153;47.744;10.580;2024-03-25T10:21:43;12.90;;;1.10;;
4278;SDS011;2153;47.744;10.580;2024-03-25T10:24:16;13.47;;;1.23;;
4278;SDS011;2153;47.744;10.580;2024-03-25T10:26:42;13.63;;;1.60;;
4278;SDS011;2153;47.744;10.580;2024-03-25T10:29:09;13.10;;;1.20;;
4278;SDS011;2153;47.744;10.580;2024-03-25T10:31:35;12.87;;;1.10;;
4278;SDS011;2153;47.744;10.580;2024-03-25T10:34:01;13.43;;;1.47;;
4278;SDS011;2153;47.744;10.580;2024-03-25T10:36:27;13.10;;;1.40;;
4278;SDS011;2153;47.744;10.580;2024-03-25T10:38:54;14.40;;;1.30;;
4278;SDS011;2153;47.744;10.580;2024-03-25T10:41:22;15.93;;;1.50;;
4278;SDS011;2153;47.744;10.580;2024-03-25T10:43:48;12.50;;;1.10;;
4278;SDS011;2153;47.744;10.580;2024-03-25T10:46:16;11.90;;;0.90;;
4278;SDS011;2153;47.744;10.580;2024-03-25T10:48:44;12.10;;;1.00;;
4278;SDS011;2153;47.744;10.580;2024-03-25T10:51:12;16.77;;;1.20;;
4278;SDS011;2153;47.744;10.580;2024-03-25T10:53:41;14.70;;;1.23;;
4278;SDS011;2153;47.744;10.580;2024-03-25T10:56:09;12.30;;;1.10;;
4278;SDS011;2153;47.744;10.580;2024-03-25T10:58:38;11.87;;;0.90;;
4278;SDS011;2153;47.744;10.580;2024-03-25T11:01:04;12.50;;;0.97;;
4278;SDS011;2153;47.744;10.580;2024-03-25T11:03:31;11.37;;;0.77;;
4278;SDS011;2153;47.744;10.580;2024-03-25T11:05:57;11.80;;;0.80;;
4278;SDS011;2153;47.744;10.580;2024-03-25T11:08:30;11.60;;;0.97;;
4278;SDS011;2153;47.744;10.580;2024-03-25T11:10:56;11.83;;;0.90;;
4278;SDS011;2153;47.744;10.580;2024-03-25T11:13:22;11.50;;;0.83;;
4278;SDS011;2153;47.744;10.580;2024-03-25T11:15:49;12.10;;;1.10;;
4278;SDS011;2153;47.744;10.580;2024-03-25T11:18:16;11.73;;;0.90;;
4278;SDS011;2153;47.744;10.580;2024-03-25T11:20:42;11.97;;;1.23;;
4278;SDS011;2153;47.744;10.580;2024-03-25T11:25:38;11.77;;;0.90;;
4278;SDS011;2153;47.744;10.580;2024-03-25T11:28:05;11.70;;;1.00;;
4278;SDS011;2153;47.744;10.580;2024-03-25T11:30:32;11.77;;;0.97;;
4278;SDS011;2153;47.744;10.580;2024-03-25T11:33:00;17.07;;;1.20;;
4278;SDS011;2153;47.744;10.580;2024-03-25T11:35:27;13.87;;;1.03;;
4278;SDS011;2153;47.744;10.580;2024-03-25T11:37:53;11.73;;;1.03;;
4278;SDS011;2153;47.744;10.580;2024-03-25T11:40:19;12.00;;;0.80;;
4278;SDS011;2153;47.744;10.580;2024-03-25T11:42:45;13.47;;;1.00;;
4278;SDS011;2153;47.744;10.580;2024-03-25T11:45:13;13.10;;;1.20;;
4278;SDS011;2153;47.744;10.580;2024-03-25T11:47:40;13.60;;;1.10;;
4278;SDS011;2153;47.744;10.580;2024-03-25T11:50:09;11.93;;;1.20;;
4278;SDS011;2153;47.744;10.580;2024-03-25T11:52:36;12.10;;;0.70;;
4278;SDS011;2153;47.744;10.580;2024-03-25T11:55:02;12.03;;;1.10;;
4278;SDS011;2153;47.744;10.580;2024-03-25T11:57:28;11.63;;;0.90;;
4278;SDS011;2153;47.744;10.580;2024-03-25T11:59:54;11.47;;;0.87;;
4278;SDS011;2153;47.744;10.580;2024-03-25T12:02:20;11.83;;;0.90;;
4278;SDS011;2153;47.744;10.580;2024-03-25T12:04:47;14.13;;;1.00;;
4278;SDS011;2153;47.744;10.580;2024-03-25T12:07:14;12.13;;;0.90;;
4278;SDS011;2153;47.744;10.580;2024-03-25T12:09:40;12.57;;;1.10;;
4278;SDS011;2153;47.744;10.580;2024-03-25T12:12:25;13.00;;;1.20;;
4278;SDS011;2153;47.744;10.580;2024-03-25T12:14:51;12.10;;;1.10;;
4278;SDS011;2153;47.744;10.580;2024-03-25T12:17:18;12.20;;;1.10;;
4278;SDS011;2153;47.744;10.580;2024-03-25T12:19:44;11.43;;;0.73;;
4278;SDS011;2153;47.744;10.580;2024-03-25T12:22:10;12.23;;;0.97;;
4278;SDS011;2153;47.744;10.580;2024-03-25T12:24:37;12.20;;;1.00;;
4278;SDS011;2153;47.744;10.580;2024-03-25T12:27:04;12.70;;;1.00;;
4278;SDS011;2153;47.744;10.580;2024-03-25T12:29:30;15.57;;;1.50;;
4278;SDS011;2153;47.744;10.580;2024-03-25T12:31:56;11.90;;;0.97;;
4278;SDS011;2153;47.744;10.580;2024-03-25T12:34:22;11.53;;;1.10;;
4278;SDS011;2153;47.744;10.580;2024-03-25T12:36:50;12.07;;;1.10;;
4278;SDS011;2153;47.744;10.580;2024-03-25T12:39:16;12.10;;;1.33;;
4278;SDS011;2153;47.744;10.580;2024-03-25T12:41:43;11.50;;;0.90;;
4278;SDS011;2153;47.744;10.580;2024-03-25T12:44:11;13.03;;;1.10;;
4278;SDS011;2153;47.744;10.580;2024-03-25T12:46:37;11.23;;;0.80;;
4278;SDS011;2153;47.744;10.580;2024-03-25T12:49:04;11.10;;;0.80;;
4278;SDS011;2153;47.744;10.580;2024-03-25T12:51:29;12.20;;;1.00;;
4278;SDS011;2153;47.744;10.580;2024-03-25T12:53:55;12.77;;;1.10;;
4278;SDS011;2153;47.744;10.580;2024-03-25T12:56:21;12.30;;;0.93;;
4278;SDS011;2153;47.744;10.580;2024-03-25T12:58:48;12.03;;;0.97;;
4278;SDS011;2153;47.744;10.580;2024-03-25T13:01:20;11.27;;;0.73;;
4278;SDS011;2153;47.744;10.580;2024-03-25T13:03:46;12.70;;;0.97;;
4278;SDS011;2153;47.744;10.580;2024-03-25T13:06:12;11.33;;;0.90;;
4278;SDS011;2153;47.744;10.580;2024-03-25T13:08:38;11.57;;;0.90;;
4278;SDS011;2153;47.744;10.580;2024-03-25T13:11:04;11.80;;;0.90;;
4278;SDS011;2153;47.744;10.580;2024-03-25T13:13:29;13.60;;;0.90;;
4278;SDS011;2153;47.744;10.580;2024-03-25T13:15:57;11.07;;;0.73;;
4278;SDS011;2153;47.744;10.580;2024-03-25T13:18:22;11.90;;;0.97;;
4278;SDS011;2153;47.744;10.580;2024-03-25T13:20:48;11.40;;;1.00;;
4278;SDS011;2153;47.744;10.580;2024-03-25T13:23:14;14.33;;;1.10;;
4278;SDS011;2153;47.744;10.580;2024-03-25T13:25:40;11.43;;;1.03;;
4278;SDS011;2153;47.744;10.580;2024-03-25T13:28:05;12.00;;;0.90;;
4278;SDS011;2153;47.744;10.580;2024-03-25T13:30:31;11.40;;;0.80;;
4278;SDS011;2153;47.744;10.580;2024-03-25T13:32:59;11.20;;;0.87;;
4278;SDS011;2153;47.744;10.580;2024-03-25T13:35:24;11.43;;;0.90;;
4278;SDS011;2153;47.744;10.580;2024-03-25T13:37:50;12.30;;;0.87;;
4278;SDS011;2153;47.744;10.580;2024-03-25T13:40:16;13.20;;;0.90;;
4278;SDS011;2153;47.744;10.580;2024-03-25T13:42:42;11.13;;;0.80;;
4278;SDS011;2153;47.744;10.580;2024-03-25T13:45:08;12.10;;;0.90;;
4278;SDS011;2153;47.744;10.580;2024-03-25T13:47:34;11.47;;;0.90;;
4278;SDS011;2153;47.744;10.580;2024-03-25T13:50:01;11.87;;;1.10;;
4278;SDS011;2153;47.744;10.580;2024-03-25T13:52:27;12.90;;;1.20;;
4278;SDS011;2153;47.744;10.580;2024-03-25T13:54:53;12.90;;;1.30;;
4278;SDS011;2153;47.744;10.580;2024-03-25T13:57:19;11.80;;;0.97;;
4278;SDS011;2153;47.744;10.580;2024-03-25T13:59:45;12.70;;;1.10;;
4278;SDS011;2153;47.744;10.580;2024-03-25T14:02:11;13.90;;;1.00;;
4278;SDS011;2153;47.744;10.580;2024-03-25T14:04:36;11.53;;;1.00;;
4278;SDS011;2153;47.744;10.580;2024-03-25T14:07:04;11.97;;;1.20;;
4278;SDS011;2153;47.744;10.580;2024-03-25T14:09:30;11.87;;;1.07;;
4278;SDS011;2153;47.744;10.580;2024-03-25T14:11:55;11.70;;;0.80;;
4278;SDS011;2153;47.744;10.580;2024-03-25T14:14:21;13.50;;;1.27;;
4278;SDS011;2153;47.744;10.580;2024-03-25T14:16:47;12.50;;;0.97;;
4278;SDS011;2153;47.744;10.580;2024-03-25T14:19:13;12.60;;;1.20;;
4278;SDS011;2153;47.744;10.580;2024-03-25T14:21:39;11.90;;;1.17;;
4278;SDS011;2153;47.744;10.580;2024-03-25T14:24:06;12.87;;;1.53;;
4278;SDS011;2153;47.744;10.580;2024-03-25T14:26:32;17.80;;;1.00;;
4278;SDS011;2153;47.744;10.580;2024-03-25T14:28:58;12.63;;;1.63;;
4278;SDS011;2153;47.744;10.580;2024-03-25T14:31:24;12.63;;;1.50;;
4278;SDS011;2153;47.744;10.580;2024-03-25T14:33:50;12.50;;;1.00;;
4278;SDS011;2153;47.744;10.580;2024-03-25T14:36:16;12.90;;;1.00;;
4278;SDS011;2153;47.744;10.580;2024-03-25T14:38:42;12.03;;;1.00;;
4278;SDS011;2153;47.744;10.580;2024-03-25T14:41:10;11.60;;;0.87;;
4278;SDS011;2153;47.744;10.580;2024-03-25T14:46:12;12.17;;;1.10;;
4278;SDS011;2153;47.744;10.580;2024-03-25T14:51:13;15.63;;;1.53;;
4278;SDS011;2153;47.744;10.580;2024-03-25T14:53:39;11.60;;;1.27;;
4278;SDS011;2153;47.744;10.580;2024-03-25T14:58:42;11.50;;;1.00;;
4278;SDS011;2153;47.744;10.580;2024-03-25T15:01:08;11.27;;;0.80;;